Time;durP1;ratioP1;P1;durP2;ratioP2;P2;SDS_P1;SDS_P2;PMS_P1;PMS_P2;Temp;Humidity;BMP_temperature;BMP_pressure;BME280_temperature;BME280_humidity;BME280_pressure;Samples;Min_cycle;Max_cycle;Signal;HPM_P1;HPM_P2
2022/11/02 00:01:35;;;;;;;9.88;2.10;;;12.50;99.90;;;;;;5018594;28;20142;-83
2022/11/02 00:04:00;;;;;;;14.25;2.08;;;12.50;99.90;;;;;;5032305;28;20557;-80
2022/11/02 00:06:26;;;;;;;16.33;2.15;;;12.30;99.90;;;;;;5003735;28;20044;-79
2022/11/02 00:08:52;;;;;;;8.32;2.00;;;12.40;99.90;;;;;;5011579;28;20068;-81
2022/11/02 00:11:17;;;;;;;9.30;1.83;;;12.50;99.90;;;;;;5017239;28;20060;-84
2022/11/02 00:13:43;;;;;;;10.27;2.08;;;12.40;99.90;;;;;;5033924;28;20072;-82
2022/11/02 00:16:13;;;;;;;13.00;2.38;;;12.50;99.90;;;;;;5019719;28;20135;-82
2022/11/02 00:18:39;;;;;;;13.15;1.85;;;12.40;99.90;;;;;;5026125;28;20060;-80
2022/11/02 00:21:05;;;;;;;13.25;2.00;;;12.30;99.90;;;;;;5034277;28;20108;-82
2022/11/02 00:23:31;;;;;;;8.23;1.67;;;12.30;99.90;;;;;;5003085;28;20405;-80
2022/11/02 00:26:00;;;;;;;9.93;2.08;;;12.20;99.90;;;;;;5030049;28;20057;-79
2022/11/02 00:28:27;;;;;;;14.30;1.60;;;12.20;99.90;;;;;;5017317;28;20041;-81
2022/11/02 00:30:53;;;;;;;7.88;1.90;;;12.00;99.90;;;;;;5038047;28;20060;-81
2022/11/02 00:33:19;;;;;;;7.13;1.60;;;11.90;99.90;;;;;;5027766;28;20048;-83
2022/11/02 00:35:45;;;;;;;10.50;1.60;;;11.90;99.90;;;;;;5025204;28;20400;-80
2022/11/02 00:38:11;;;;;;;12.13;1.60;;;11.80;99.90;;;;;;5024494;28;20183;-80
2022/11/02 00:40:37;;;;;;;18.33;1.65;;;11.80;99.90;;;;;;5018831;28;20559;-82
2022/11/02 00:43:04;;;;;;;11.93;1.90;;;11.70;99.90;;;;;;5032242;28;20172;-82
2022/11/02 00:45:31;;;;;;;9.02;1.80;;;11.50;99.90;;;;;;5017198;28;20045;-81
2022/11/02 00:47:56;;;;;;;7.97;1.42;;;11.50;99.90;;;;;;5016619;28;20140;-82
2022/11/02 00:50:22;;;;;;;8.27;1.50;;;11.60;99.90;;;;;;5016262;28;20117;-83
2022/11/02 00:52:48;;;;;;;7.30;1.20;;;11.40;99.90;;;;;;5015268;28;20045;-81
2022/11/02 00:55:14;;;;;;;7.10;1.45;;;11.40;99.90;;;;;;5031430;28;20345;-82
2022/11/02 00:57:40;;;;;;;9.13;1.60;;;11.50;99.90;;;;;;5016053;28;20040;-81
2022/11/02 01:00:14;;;;;;;7.22;1.35;;;11.40;99.90;;;;;;5017887;28;20392;-82
2022/11/02 01:02:40;;;;;;;6.63;1.58;;;11.40;99.90;;;;;;5017554;28;20032;-83
2022/11/02 01:05:07;;;;;;;9.70;1.55;;;11.30;99.90;;;;;;5014535;28;20128;-80
2022/11/02 01:07:34;;;;;;;8.90;1.50;;;11.40;99.90;;;;;;5032743;28;20377;-80
2022/11/02 01:10:00;;;;;;;7.18;1.30;;;11.40;99.90;;;;;;5018752;28;20037;-83
2022/11/02 01:12:25;;;;;;;6.22;1.33;;;11.30;99.90;;;;;;5006280;28;20068;-83
2022/11/02 01:14:51;;;;;;;6.72;1.20;;;11.40;99.90;;;;;;5051140;28;20036;-83
2022/11/02 01:17:18;;;;;;;7.18;1.30;;;11.30;99.90;;;;;;5032681;28;20037;-85
2022/11/02 01:19:44;;;;;;;6.00;1.40;;;11.30;99.90;;;;;;5013958;28;20381;-84
2022/11/02 01:22:09;;;;;;;5.28;1.40;;;11.20;99.90;;;;;;5018702;28;20452;-84
2022/11/02 01:24:35;;;;;;;3.95;1.08;;;11.30;99.90;;;;;;5025485;28;20073;-81
2022/11/02 01:27:01;;;;;;;4.70;1.00;;;11.20;99.90;;;;;;4998959;28;20132;-82
2022/11/02 01:29:33;;;;;;;5.55;1.02;;;11.10;99.90;;;;;;5017512;28;20037;-84
2022/11/02 01:31:58;;;;;;;6.15;1.05;;;11.20;99.90;;;;;;5019945;28;20041;-80
2022/11/02 01:34:24;;;;;;;4.15;1.10;;;11.10;99.90;;;;;;5034355;28;20039;-82
2022/11/02 01:36:49;;;;;;;5.03;1.10;;;11.00;99.90;;;;;;5023745;28;20084;-85
2022/11/02 01:39:15;;;;;;;4.75;0.93;;;11.10;99.90;;;;;;5027522;28;20045;-80
2022/11/02 01:41:41;;;;;;;5.80;1.20;;;10.80;99.90;;;;;;5012794;28;20037;-82
2022/11/02 01:44:33;;;;;;;5.13;1.00;;;10.90;99.90;;;;;;5016577;28;20051;-83
2022/11/02 01:47:01;;;;;;;4.25;1.10;;;10.90;99.90;;;;;;5020018;28;20049;-80
2022/11/02 01:49:30;;;;;;;4.22;0.90;;;10.90;99.90;;;;;;5037757;28;20049;-80
2022/11/02 01:52:02;;;;;;;3.95;0.90;;;10.90;99.90;;;;;;5024661;28;20079;-81
2022/11/02 01:54:36;;;;;;;9.95;1.17;;;10.90;99.90;;;;;;5041822;28;20071;-83
2022/11/02 01:57:09;;;;;;;1.95;0.85;;;10.90;99.90;;;;;;5007260;28;20045;-79
2022/11/02 01:59:49;;;;;;;5.28;1.00;;;10.90;99.90;;;;;;5023541;28;20100;-82
2022/11/02 02:02:19;;;;;;;8.27;1.33;;;10.90;99.90;;;;;;5035052;28;20071;-82
2022/11/02 02:04:48;;;;;;;11.73;1.30;;;11.10;99.90;;;;;;5054061;28;20037;-84
2022/11/02 02:07:14;;;;;;;2.80;0.80;;;11.00;99.90;;;;;;5030051;28;20037;-82
2022/11/02 02:09:42;;;;;;;6.43;1.25;;;10.80;99.90;;;;;;5017408;28;20442;-82
2022/11/02 02:12:07;;;;;;;6.25;0.70;;;10.90;99.90;;;;;;5040588;28;20439;-81
2022/11/02 02:14:33;;;;;;;6.15;0.80;;;10.80;99.90;;;;;;5032320;28;20082;-84
2022/11/02 02:17:02;;;;;;;1.98;0.70;;;10.90;99.90;;;;;;5034782;28;20362;-82
2022/11/02 02:19:49;;;;;;;4.68;1.10;;;10.80;99.90;;;;;;5021829;28;20050;-83
2022/11/02 02:22:33;;;;;;;8.55;1.50;;;11.00;99.90;;;;;;5044838;28;20033;-81
2022/11/02 02:25:19;;;;;;;6.53;1.60;;;11.00;99.90;;;;;;5043686;28;20041;-82
2022/11/02 02:27:47;;;;;;;3.53;1.20;;;11.00;99.90;;;;;;5045461;28;20040;-85
2022/11/02 02:30:15;;;;;;;5.72;1.45;;;11.00;99.90;;;;;;5050281;28;20040;-81
2022/11/02 02:32:49;;;;;;;6.75;1.55;;;10.90;99.90;;;;;;5019649;28;20052;-82
2022/11/02 02:35:26;;;;;;;10.38;1.90;;;10.80;99.90;;;;;;5034908;28;20047;-81
2022/11/02 02:38:09;;;;;;;9.40;1.92;;;10.80;99.90;;;;;;5035774;28;20072;-83
2022/11/02 02:40:40;;;;;;;7.22;1.80;;;10.80;99.90;;;;;;5032381;28;20055;-81
2022/11/02 02:43:45;;;;;;;8.70;1.80;;;10.80;99.90;;;;;;5035806;28;20076;-81
2022/11/02 02:46:20;;;;;;;9.43;1.92;;;10.80;99.90;;;;;;5019515;28;20048;-81
2022/11/02 02:48:47;;;;;;;9.73;2.10;;;10.80;99.90;;;;;;5025843;28;20106;-82
2022/11/02 02:51:30;;;;;;;15.65;2.50;;;10.80;99.90;;;;;;5038158;28;20480;-84
2022/11/02 02:54:10;;;;;;;8.85;2.00;;;10.70;99.90;;;;;;4999889;28;20445;-83
2022/11/02 02:56:46;;;;;;;10.15;2.17;;;10.80;99.90;;;;;;5020925;28;20048;-83
2022/11/02 02:59:20;;;;;;;11.32;2.20;;;10.70;99.90;;;;;;5015551;28;20469;-84
2022/11/02 03:01:47;;;;;;;7.93;2.10;;;10.90;99.90;;;;;;5028763;28;20041;-85
2022/11/02 03:04:13;;;;;;;11.57;2.15;;;10.70;99.90;;;;;;5053525;28;20040;-83
2022/11/02 03:06:42;;;;;;;6.75;1.65;;;10.80;99.90;;;;;;5013784;28;20033;-85
2022/11/02 03:09:19;;;;;;;9.80;1.30;;;10.80;99.90;;;;;;5036408;28;20060;-84
2022/11/02 03:12:18;;;;;;;8.88;1.50;;;10.80;99.90;;;;;;5041668;28;20105;-85
2022/11/02 03:15:18;;;;;;;6.82;1.30;;;10.70;99.90;;;;;;5016787;28;20037;-81
2022/11/02 03:17:48;;;;;;;7.28;1.00;;;10.70;99.90;;;;;;5026871;28;20045;-83
2022/11/02 03:20:22;;;;;;;5.65;1.20;;;10.60;99.90;;;;;;5015005;28;20087;-82
2022/11/02 03:23:03;;;;;;;7.37;1.20;;;10.60;99.90;;;;;;5025664;28;20045;-82
2022/11/02 03:25:32;;;;;;;9.65;1.10;;;10.50;99.90;;;;;;5045493;28;20036;-82
2022/11/02 03:28:10;;;;;;;8.43;1.48;;;10.60;99.90;;;;;;5020345;28;20365;-81
2022/11/02 03:31:06;;;;;;;5.47;1.10;;;10.50;99.90;;;;;;5040460;28;20048;-80
2022/11/02 03:33:42;;;;;;;10.57;1.10;;;10.60;99.90;;;;;;5016083;28;20041;-81
2022/11/02 03:36:13;;;;;;;7.72;0.95;;;10.50;99.90;;;;;;5042222;28;20040;-80
2022/11/02 03:39:01;;;;;;;6.85;1.17;;;10.60;99.90;;;;;;5030753;28;20472;-83
2022/11/02 03:41:28;;;;;;;5.95;0.98;;;10.50;99.90;;;;;;5044250;28;20128;-83
2022/11/02 03:44:02;;;;;;;6.22;1.30;;;10.50;99.90;;;;;;5031548;28;20053;-81
2022/11/02 03:46:49;;;;;;;6.20;1.27;;;10.40;99.90;;;;;;5042100;28;20497;-85
2022/11/02 03:49:18;;;;;;;6.13;1.08;;;10.60;99.90;;;;;;5020131;28;20064;-80
2022/11/02 03:51:46;;;;;;;8.15;1.20;;;10.30;99.90;;;;;;5051796;28;20111;-82
2022/11/02 03:54:33;;;;;;;5.05;1.02;;;10.30;99.90;;;;;;5033622;28;20389;-82
2022/11/02 03:57:03;;;;;;;9.20;1.30;;;10.30;99.90;;;;;;5030753;28;20080;-84
2022/11/02 03:59:32;;;;;;;8.48;1.58;;;10.40;99.90;;;;;;5017914;28;20041;-82
2022/11/02 04:02:01;;;;;;;8.07;1.48;;;10.30;99.90;;;;;;5018261;28;20166;-83
2022/11/02 04:04:26;;;;;;;8.93;1.63;;;10.30;99.90;;;;;;5017435;28;20160;-80
2022/11/02 04:06:55;;;;;;;10.75;1.63;;;10.40;99.90;;;;;;5025006;28;20179;-84
2022/11/02 04:09:21;;;;;;;8.35;1.88;;;10.20;99.90;;;;;;5018371;28;20087;-82
2022/11/02 04:14:36;;;;;;;8.82;1.92;;;10.30;99.90;;;;;;5033796;28;20045;-84
2022/11/02 04:19:46;;;;;;;13.93;1.88;;;10.30;99.90;;;;;;5031432;28;20041;-82
2022/11/02 04:25:14;;;;;;;13.32;1.98;;;10.40;99.90;;;;;;5025632;28;20067;-81
2022/11/02 04:27:42;;;;;;;9.80;1.50;;;10.50;99.90;;;;;;5017537;28;20520;-82
2022/11/02 04:30:09;;;;;;;14.45;1.63;;;10.50;99.90;;;;;;5018381;28;20372;-82
2022/11/02 04:35:23;;;;;;;10.57;1.92;;;10.50;99.90;;;;;;5034167;28;20049;-83
2022/11/02 04:40:34;;;;;;;11.90;1.80;;;10.60;99.90;;;;;;5029152;28;20053;-83
2022/11/02 04:42:59;;;;;;;9.48;1.60;;;10.60;99.90;;;;;;5001893;28;20119;-81
2022/11/02 04:49:07;;;;;;;11.85;1.73;;;10.50;99.90;;;;;;5050450;28;20143;-78
2022/11/02 04:51:33;;;;;;;15.57;2.00;;;10.40;99.90;;;;;;5052895;28;20049;-79
2022/11/02 04:54:00;;;;;;;11.18;1.90;;;10.80;99.90;;;;;;5055646;28;20052;-81
2022/11/02 04:56:27;;;;;;;15.63;2.05;;;10.40;99.90;;;;;;5025328;28;20033;-83
2022/11/02 04:58:57;;;;;;;12.55;1.90;;;10.40;99.90;;;;;;5017545;28;20046;-80
2022/11/02 05:01:42;;;;;;;18.27;2.15;;;10.60;99.90;;;;;;5027201;28;20033;-83
2022/11/02 05:04:09;;;;;;;12.15;1.90;;;10.30;99.90;;;;;;5052471;28;20029;-84
2022/11/02 05:06:35;;;;;;;12.10;1.63;;;10.60;99.90;;;;;;5015837;28;20051;-84
2022/11/02 05:09:01;;;;;;;10.82;1.60;;;10.50;99.90;;;;;;5018053;28;20045;-84
2022/11/02 05:11:26;;;;;;;14.43;2.03;;;10.50;99.90;;;;;;5047139;28;20090;-81
2022/11/02 05:13:52;;;;;;;12.32;1.85;;;10.30;99.90;;;;;;5051418;28;20384;-84
2022/11/02 05:16:18;;;;;;;10.35;2.00;;;10.50;99.90;;;;;;5051021;28;20102;-86
2022/11/02 05:18:43;;;;;;;12.65;2.10;;;10.60;99.90;;;;;;5032747;28;20383;-83
2022/11/02 05:21:10;;;;;;;13.88;1.88;;;10.50;99.90;;;;;;5033310;28;20033;-85
2022/11/02 05:23:37;;;;;;;8.23;2.10;;;10.50;99.90;;;;;;5016246;28;20029;-86
2022/11/02 05:26:05;;;;;;;14.90;2.28;;;10.60;99.90;;;;;;5032439;28;20041;-83
2022/11/02 05:28:31;;;;;;;14.73;2.38;;;10.50;99.90;;;;;;5046826;28;20033;-81
2022/11/02 05:31:01;;;;;;;8.18;1.88;;;10.30;99.90;;;;;;5045844;28;20123;-82
2022/11/02 05:33:29;;;;;;;11.93;2.17;;;10.40;99.90;;;;;;5016623;28;20167;-81
2022/11/02 05:35:56;;;;;;;17.15;2.60;;;10.30;99.90;;;;;;5031381;28;20384;-81
2022/11/02 05:38:23;;;;;;;10.40;1.95;;;10.50;99.90;;;;;;5032982;28;20052;-84
2022/11/02 05:40:57;;;;;;;11.65;2.13;;;10.40;99.90;;;;;;5028388;28;20400;-84
2022/11/02 05:43:23;;;;;;;9.43;2.40;;;10.40;99.90;;;;;;5049557;28;20106;-83
2022/11/02 05:45:57;;;;;;;14.13;2.47;;;10.50;99.90;;;;;;5034946;28;20047;-85
2022/11/02 05:48:24;;;;;;;15.00;2.33;;;10.50;99.90;;;;;;5017469;28;20036;-82
2022/11/02 05:50:58;;;;;;;12.65;2.65;;;10.50;99.90;;;;;;5017333;28;20153;-80
2022/11/02 05:53:26;;;;;;;16.02;2.97;;;10.60;99.90;;;;;;5008392;28;20065;-81
2022/11/02 05:55:57;;;;;;;15.18;2.53;;;10.30;99.90;;;;;;5007841;28;20391;-85
2022/11/02 05:58:23;;;;;;;18.88;2.38;;;10.50;99.90;;;;;;5030942;28;20037;-83
2022/11/02 06:00:48;;;;;;;17.73;2.72;;;10.50;99.90;;;;;;5031859;28;20084;-85
2022/11/02 06:03:16;;;;;;;11.55;2.10;;;10.50;99.90;;;;;;5033522;28;20131;-83
2022/11/02 06:05:42;;;;;;;13.73;2.42;;;10.50;99.90;;;;;;5051159;28;20048;-83
2022/11/02 06:08:07;;;;;;;14.35;2.50;;;10.60;99.90;;;;;;5046806;28;20369;-83
2022/11/02 06:10:36;;;;;;;14.02;2.63;;;10.40;99.90;;;;;;5011429;28;20045;-84
2022/11/02 06:13:04;;;;;;;21.67;2.67;;;10.20;99.90;;;;;;5004492;28;20563;-83
2022/11/02 06:15:31;;;;;;;18.52;2.42;;;10.40;99.90;;;;;;5027786;28;20042;-84
2022/11/02 06:17:57;;;;;;;19.70;2.60;;;10.30;99.90;;;;;;5026274;28;20033;-83
2022/11/02 06:20:23;;;;;;;18.27;2.42;;;10.20;99.90;;;;;;5030365;28;20457;-83
2022/11/02 06:22:49;;;;;;;17.40;3.10;;;10.40;99.90;;;;;;5043480;28;20047;-85
2022/11/02 06:25:15;;;;;;;14.40;2.60;;;10.40;99.90;;;;;;5027806;28;20044;-81
2022/11/02 06:27:41;;;;;;;19.95;3.20;;;10.30;99.90;;;;;;5022319;28;20372;-83
2022/11/02 06:33:48;;;;;;;17.13;2.97;;;10.40;99.90;;;;;;5042903;28;20036;-83
2022/11/02 06:36:13;;;;;;;20.70;2.20;;;10.70;99.90;;;;;;5013566;28;20044;-86
2022/11/02 06:38:40;;;;;;;18.63;2.63;;;10.80;99.90;;;;;;5026953;28;20681;-85
2022/11/02 06:41:06;;;;;;;18.50;2.30;;;10.90;99.90;;;;;;5040968;28;20044;-84
2022/11/02 06:43:33;;;;;;;17.17;2.38;;;10.50;99.90;;;;;;5028333;28;20047;-84
2022/11/02 06:45:58;;;;;;;17.08;2.78;;;10.60;99.90;;;;;;5030345;28;20105;-84
2022/11/02 06:48:25;;;;;;;17.08;2.30;;;10.70;99.90;;;;;;5022119;28;20124;-87
2022/11/02 06:50:51;;;;;;;16.23;2.55;;;10.90;99.90;;;;;;5034829;28;20132;-86
2022/11/02 06:53:17;;;;;;;12.95;2.30;;;10.80;99.90;;;;;;5015305;28;20183;-82
2022/11/02 06:55:43;;;;;;;15.90;2.30;;;10.60;99.90;;;;;;5026998;28;20041;-83
2022/11/02 06:58:09;;;;;;;13.20;2.40;;;10.70;99.90;;;;;;5019097;28;20143;-84
2022/11/02 07:00:37;;;;;;;17.05;2.90;;;10.70;99.90;;;;;;5036269;28;20064;-82
2022/11/02 07:03:14;;;;;;;14.57;2.13;;;11.10;99.90;;;;;;5016854;28;20072;-82
2022/11/02 07:05:39;;;;;;;16.70;2.30;;;10.80;99.90;;;;;;5028034;28;20049;-83
2022/11/02 07:08:08;;;;;;;13.88;2.30;;;10.80;99.90;;;;;;5012985;28;20500;-81
2022/11/02 07:10:34;;;;;;;13.55;2.25;;;10.70;99.90;;;;;;5027993;28;20057;-85
2022/11/02 07:13:00;;;;;;;15.85;2.38;;;11.00;99.90;;;;;;5014763;28;20049;-82
2022/11/02 07:15:27;;;;;;;20.85;2.92;;;11.00;99.90;;;;;;5031256;28;20045;-82
2022/11/02 07:17:53;;;;;;;16.45;2.50;;;10.80;99.90;;;;;;5011341;28;20148;-84
2022/11/02 07:20:19;;;;;;;12.63;2.28;;;11.00;99.90;;;;;;5049401;28;20116;-81
2022/11/02 07:22:56;;;;;;;26.15;2.70;;;10.90;99.90;;;;;;5010204;28;20056;-82
2022/11/02 07:25:22;;;;;;;18.55;2.60;;;11.00;99.90;;;;;;5020107;28;20064;-83
2022/11/02 07:27:48;;;;;;;19.17;2.15;;;10.70;99.90;;;;;;5021205;28;20124;-82
2022/11/02 07:30:14;;;;;;;15.80;2.22;;;10.70;99.90;;;;;;5042938;28;20083;-84
2022/11/02 07:32:41;;;;;;;18.50;2.30;;;10.70;99.90;;;;;;5040492;28;20112;-81
2022/11/02 07:35:10;;;;;;;19.52;1.92;;;10.70;99.90;;;;;;5019935;28;20123;-82
2022/11/02 07:37:36;;;;;;;13.80;2.30;;;10.70;99.90;;;;;;5027180;28;20049;-82
2022/11/02 07:40:03;;;;;;;12.98;2.03;;;10.70;99.90;;;;;;5032530;28;20037;-82
2022/11/02 07:42:28;;;;;;;13.52;2.08;;;10.70;99.90;;;;;;5026664;28;20045;-82
2022/11/02 07:44:54;;;;;;;11.82;1.92;;;10.60;99.90;;;;;;5012524;28;20126;-82
2022/11/02 07:47:20;;;;;;;11.13;1.92;;;10.50;99.90;;;;;;5054290;28;20049;-83
2022/11/02 07:49:45;;;;;;;8.30;1.73;;;10.60;99.90;;;;;;5049075;28;20041;-83
2022/11/02 07:52:11;;;;;;;11.85;1.67;;;10.50;99.90;;;;;;5007201;28;20048;-84
2022/11/02 07:54:37;;;;;;;8.20;1.55;;;10.60;99.90;;;;;;5009809;28;20056;-82
2022/11/02 07:57:02;;;;;;;6.20;1.30;;;10.50;99.90;;;;;;5018221;28;20049;-83
2022/11/02 07:59:28;;;;;;;7.57;1.15;;;10.50;99.90;;;;;;5027129;28;20420;-83
2022/11/02 08:01:57;;;;;;;5.50;1.45;;;10.40;99.90;;;;;;5016176;28;20511;-82
2022/11/02 08:04:23;;;;;;;10.02;1.45;;;10.80;99.90;;;;;;5025508;28;20123;-84
2022/11/02 08:06:48;;;;;;;5.80;1.20;;;10.60;99.90;;;;;;5027739;28;20091;-82
2022/11/02 08:09:14;;;;;;;11.43;1.80;;;10.80;99.90;;;;;;5033903;28;20109;-81
2022/11/02 08:11:40;;;;;;;7.38;1.30;;;10.70;99.90;;;;;;5020221;28;20053;-82
2022/11/02 08:14:06;;;;;;;10.20;1.60;;;11.00;99.90;;;;;;5003118;28;20084;-82
2022/11/02 08:16:32;;;;;;;11.63;1.40;;;11.00;99.90;;;;;;5017601;28;20075;-83
2022/11/02 08:18:58;;;;;;;9.77;1.40;;;11.20;99.90;;;;;;5002293;28;20489;-83
2022/11/02 08:21:27;;;;;;;7.53;1.30;;;11.50;99.90;;;;;;5003931;28;20137;-83
2022/11/02 08:23:54;;;;;;;9.63;1.55;;;11.40;99.90;;;;;;5004325;28;20484;-82
2022/11/02 08:26:20;;;;;;;9.13;1.25;;;11.50;99.90;;;;;;5003598;28;20044;-81
2022/11/02 08:28:46;;;;;;;11.93;1.58;;;11.80;99.90;;;;;;5016927;28;20052;-83
2022/11/02 08:31:14;;;;;;;13.63;1.60;;;11.80;99.90;;;;;;5016173;28;20049;-83
2022/11/02 08:33:42;;;;;;;6.93;1.45;;;11.70;99.90;;;;;;5024027;28;20049;-81
2022/11/02 08:36:09;;;;;;;7.78;1.40;;;11.80;99.90;;;;;;5017946;28;20048;-82
2022/11/02 08:38:35;;;;;;;6.28;1.20;;;11.80;99.90;;;;;;5026236;28;20049;-83
2022/11/02 08:41:01;;;;;;;10.35;1.50;;;11.80;99.90;;;;;;5010206;28;20131;-81
2022/11/02 08:43:26;;;;;;;10.68;1.90;;;11.70;99.90;;;;;;5017685;28;20045;-84
2022/11/02 08:45:57;;;;;;;11.10;1.70;;;11.70;99.90;;;;;;5019242;28;20523;-82
2022/11/02 08:48:22;;;;;;;7.55;1.60;;;11.60;99.90;;;;;;4997914;28;20057;-81
2022/11/02 08:50:48;;;;;;;12.23;1.75;;;11.60;99.90;;;;;;5017514;28;20057;-83
2022/11/02 08:53:14;;;;;;;10.35;1.75;;;11.50;99.90;;;;;;5033252;28;20060;-81
2022/11/02 08:55:40;;;;;;;13.88;1.92;;;11.50;99.90;;;;;;5032763;28;20052;-83
2022/11/02 08:58:05;;;;;;;10.40;1.67;;;11.70;99.90;;;;;;5031941;28;20072;-82
2022/11/02 09:00:33;;;;;;;12.98;2.05;;;11.80;99.90;;;;;;5009734;28;20067;-82
2022/11/02 09:03:03;;;;;;;13.93;2.40;;;11.70;99.90;;;;;;5005148;28;20476;-84
2022/11/02 09:05:38;;;;;;;8.68;1.70;;;11.60;99.90;;;;;;5014709;28;20047;-83
2022/11/02 09:08:13;;;;;;;15.77;2.25;;;11.60;99.90;;;;;;4997719;28;20052;-84
2022/11/02 09:10:39;;;;;;;14.73;1.48;;;11.80;99.90;;;;;;5031393;28;20056;-84
2022/11/02 09:13:06;;;;;;;10.75;1.98;;;11.80;99.90;;;;;;5017741;28;20055;-80
2022/11/02 09:15:34;;;;;;;13.30;2.00;;;11.80;99.90;;;;;;5015985;28;20336;-84
2022/11/02 09:18:01;;;;;;;12.75;2.08;;;12.00;99.90;;;;;;5023616;28;20054;-80
2022/11/02 09:20:27;;;;;;;12.30;1.95;;;12.10;99.90;;;;;;5019330;28;20060;-81
2022/11/02 09:22:53;;;;;;;14.57;2.10;;;12.10;99.90;;;;;;5005242;28;20514;-82
2022/11/02 09:25:20;;;;;;;11.38;1.88;;;12.10;99.90;;;;;;5015752;28;20081;-83
2022/11/02 09:27:45;;;;;;;14.43;2.65;;;12.30;99.90;;;;;;5008812;28;20056;-81
2022/11/02 09:30:12;;;;;;;14.93;2.10;;;12.40;99.90;;;;;;5021014;28;20053;-80
2022/11/02 09:32:38;;;;;;;12.90;1.95;;;12.30;99.90;;;;;;5018020;28;20088;-82
2022/11/02 09:35:10;;;;;;;21.05;2.22;;;12.40;99.90;;;;;;5019708;28;20137;-80
2022/11/02 09:37:36;;;;;;;17.00;2.22;;;12.40;99.90;;;;;;5034629;28;20044;-82
2022/11/02 09:40:04;;;;;;;13.25;1.98;;;12.50;99.90;;;;;;5027490;28;20049;-79
2022/11/02 09:43:19;;;;;;;17.40;2.70;;;12.50;99.90;;;;;;5027517;28;20044;-79
2022/11/02 09:46:05;;;;;;;16.33;2.38;;;12.70;99.90;;;;;;4973462;28;20054;-80
2022/11/02 09:48:32;;;;;;;;;;;12.90;99.90;;;;;;4957286;28;20046;-79
2022/11/02 09:51:19;;;;;;;19.23;2.45;;;12.80;99.90;;;;;;4956294;28;19925;-83
2022/11/02 09:54:13;;;;;;;12.35;1.98;;;12.90;99.90;;;;;;4958495;28;20066;-83
2022/11/02 09:56:41;;;;;;;17.75;2.28;;;12.80;99.90;;;;;;4977412;28;20107;-81
2022/11/02 09:59:18;;;;;;;22.85;2.20;;;12.90;99.90;;;;;;4962468;28;20061;-80
2022/11/02 10:01:55;;;;;;;18.38;2.45;;;12.90;99.90;;;;;;4963465;28;20085;-79
2022/11/02 10:04:53;;;;;;;13.52;2.38;;;12.80;99.90;;;;;;4952469;28;20104;-81
2022/11/02 10:07:42;;;;;;;16.48;2.22;;;12.80;99.90;;;;;;4973212;28;20066;-83
2022/11/02 10:10:19;;;;;;;15.18;2.22;;;12.80;99.90;;;;;;4948872;28;20054;-79
2022/11/02 10:13:25;;;;;;;16.00;2.53;;;12.80;99.90;;;;;;4949047;28;20138;-85
2022/11/02 10:15:56;;;;;;;;;;;12.70;99.90;;;;;;4961954;28;20169;-80
2022/11/02 10:18:27;;;;;;;16.95;2.67;;;12.50;99.90;;;;;;4971534;28;19965;-80
2022/11/02 10:21:13;;;;;;;15.77;2.35;;;12.30;99.90;;;;;;5013717;28;20048;-80
2022/11/02 10:23:50;;;;;;;13.98;1.67;;;12.10;99.90;;;;;;5014617;28;20057;-84
2022/11/02 10:26:25;;;;;;;14.50;2.15;;;12.10;99.90;;;;;;5014704;28;20107;-80
2022/11/02 10:29:10;;;;;;;19.63;3.45;;;12.20;99.90;;;;;;5030664;28;20049;-81
2022/11/02 10:31:56;;;;;;;16.48;1.90;;;12.10;99.90;;;;;;5015670;28;20067;-84
2022/11/02 10:34:25;;;;;;;12.48;2.20;;;12.10;99.90;;;;;;5032004;28;20049;-81
2022/11/02 10:37:03;;;;;;;20.85;2.17;;;12.20;99.90;;;;;;5010941;28;20033;-80
2022/11/02 10:39:34;;;;;;;15.55;1.80;;;12.40;99.90;;;;;;5014686;28;20048;-82
2022/11/02 10:42:25;;;;;;;16.75;2.63;;;12.60;99.90;;;;;;5015998;28;20041;-82
2022/11/02 10:45:12;;;;;;;12.90;2.15;;;12.50;99.90;;;;;;5036414;28;20087;-78
2022/11/02 10:48:16;;;;;;;14.13;1.88;;;12.60;99.90;;;;;;5020610;28;20259;-82
2022/11/02 10:51:11;;;;;;;17.67;2.33;;;12.70;99.90;;;;;;5011640;28;20081;-83
2022/11/02 10:53:50;;;;;;;14.50;1.83;;;12.80;99.90;;;;;;5018230;28;20049;-83
2022/11/02 10:56:16;;;;;;;13.32;1.90;;;13.10;99.90;;;;;;4999404;28;20055;-81
2022/11/02 10:59:13;;;;;;;15.25;1.95;;;13.30;99.90;;;;;;5022740;28;20046;-83
2022/11/02 11:01:57;;;;;;;12.88;2.05;;;13.40;99.90;;;;;;5020950;28;20049;-83
2022/11/02 11:04:29;;;;;;;10.52;1.67;;;13.60;99.90;;;;;;5015908;28;20042;-80
2022/11/02 11:06:56;;;;;;;12.00;2.00;;;13.60;99.90;;;;;;4992003;28;20353;-81
2022/11/02 11:09:29;;;;;;;19.55;2.25;;;13.70;99.90;;;;;;5011876;28;20400;-80
2022/11/02 11:11:57;;;;;;;16.13;2.17;;;13.50;99.90;;;;;;5002358;28;20059;-81
2022/11/02 11:14:26;;;;;;;10.63;1.88;;;13.40;99.90;;;;;;5017087;28;20121;-80
2022/11/02 11:17:00;;;;;;;18.67;2.00;;;13.50;99.90;;;;;;5016721;28;20142;-79
2022/11/02 11:19:40;;;;;;;16.33;2.30;;;13.40;99.90;;;;;;5016466;28;20052;-83
2022/11/02 11:22:30;;;;;;;16.30;2.15;;;13.60;99.90;;;;;;5018118;28;20049;-80
2022/11/02 11:25:22;;;;;;;16.48;2.40;;;13.80;99.90;;;;;;4998819;28;20049;-77
2022/11/02 11:27:54;;;;;;;13.07;2.30;;;13.80;99.90;;;;;;5034998;28;20087;-78
2022/11/02 11:30:24;;;;;;;19.55;2.88;;;13.90;99.90;;;;;;5015502;28;20136;-83
2022/11/02 11:32:50;;;;;;;15.25;2.00;;;14.10;99.90;;;;;;5018985;28;20060;-82
2022/11/02 11:35:18;;;;;;;12.13;1.75;;;14.10;99.90;;;;;;5035568;28;20056;-80
2022/11/02 11:38:15;;;;;;;12.85;1.85;;;14.30;99.90;;;;;;5033324;28;20148;-77
2022/11/02 11:40:45;;;;;;;15.98;2.40;;;14.20;99.90;;;;;;5015269;28;20084;-80
2022/11/02 11:43:15;;;;;;;15.45;1.98;;;14.30;99.90;;;;;;5030358;28;20056;-81
2022/11/02 11:46:03;;;;;;;14.73;1.80;;;14.20;99.90;;;;;;5018907;28;20131;-80
2022/11/02 11:48:47;;;;;;;14.25;1.70;;;14.10;99.90;;;;;;5015913;28;20400;-81
2022/11/02 11:51:33;;;;;;;16.80;2.40;;;14.00;99.90;;;;;;4999522;28;20100;-79
2022/11/02 11:54:28;;;;;;;16.05;1.92;;;13.90;99.90;;;;;;5022229;28;20083;-81
2022/11/02 11:57:15;;;;;;;18.05;2.50;;;13.80;99.90;;;;;;5018417;28;20075;-80
2022/11/02 11:59:46;;;;;;;12.32;1.92;;;13.80;99.90;;;;;;5004754;28;20061;-82
2022/11/02 12:02:26;;;;;;;8.80;1.48;;;14.00;99.90;;;;;;5016632;28;20053;-80
2022/11/02 12:05:13;;;;;;;8.68;1.55;;;13.90;99.90;;;;;;5018728;28;20045;-80
2022/11/02 12:08:32;;;;;;;12.68;1.95;;;14.00;99.90;;;;;;5007779;28;20044;-82
2022/11/02 12:11:18;;;;;;;13.73;2.10;;;13.90;99.90;;;;;;4993523;28;20140;-81
2022/11/02 12:14:28;;;;;;;10.77;1.45;;;13.90;99.90;;;;;;5006936;28;20045;-79
2022/11/02 12:17:16;;;;;;;8.25;1.25;;;13.90;99.90;;;;;;4968540;28;20046;-82
2022/11/02 12:20:19;;;;;;;12.70;1.70;;;13.80;99.90;;;;;;4970325;28;20494;-82
2022/11/02 12:22:45;;;;;;;12.88;1.88;;;13.80;99.90;;;;;;4986685;28;20614;-81
2022/11/02 12:25:47;;;;;;;9.48;1.65;;;13.70;99.90;;;;;;4986592;28;20046;-86
2022/11/02 12:28:45;;;;;;;14.48;2.20;;;13.70;99.90;;;;;;4972054;28;20046;-80
2022/11/02 12:31:22;;;;;;;18.25;2.58;;;13.80;99.90;;;;;;4966227;28;20055;-83
2022/11/02 12:34:37;;;;;;;13.93;1.77;;;13.80;99.90;;;;;;4928617;29;20124;-83
2022/11/02 12:37:33;;;;;;;15.88;1.63;;;14.00;99.90;;;;;;4935244;29;20122;-79
2022/11/02 12:40:42;;;;;;;11.65;1.50;;;13.90;99.90;;;;;;4927481;29;20146;-79
2022/11/02 12:43:43;;;;;;;9.05;1.73;;;14.10;99.90;;;;;;4945734;28;20615;-77
2022/11/02 12:46:35;;;;;;;13.23;1.90;;;14.20;99.90;;;;;;4934045;29;20086;-79
2022/11/02 12:49:30;;;;;;;12.23;1.63;;;14.10;99.90;;;;;;4925806;29;20115;-81
2022/11/02 12:52:23;;;;;;;14.82;1.73;;;14.00;99.90;;;;;;4946732;29;20054;-83
2022/11/02 12:54:54;;;;;;;16.98;1.90;;;14.00;99.90;;;;;;4936910;28;20059;-80
2022/11/02 12:57:24;;;;;;;13.73;1.77;;;14.10;99.90;;;;;;4910131;29;20043;-81
2022/11/02 12:59:53;;;;;;;19.10;1.90;;;14.10;99.90;;;;;;4936531;29;20059;-79
2022/11/02 13:02:56;;;;;;;17.75;2.20;;;14.10;99.90;;;;;;4935960;29;20126;-81
2022/11/02 13:05:36;;;;;;;10.90;2.10;;;14.20;99.90;;;;;;4936135;29;20109;-81
2022/11/02 13:08:21;;;;;;;19.17;2.35;;;14.10;99.90;;;;;;5025715;28;20496;-84
2022/11/02 13:10:52;;;;;;;17.00;1.88;;;13.90;99.90;;;;;;5027744;28;20052;-85
2022/11/02 13:13:29;;;;;;;15.30;2.38;;;14.00;99.90;;;;;;5029285;28;20126;-82
2022/11/02 13:15:55;;;;;;;6.90;1.65;;;14.10;99.90;;;;;;4994213;28;20041;-83
2022/11/02 13:18:28;;;;;;;12.73;2.72;;;14.20;99.90;;;;;;5014986;28;20045;-80
2022/11/02 13:20:58;;;;;;;10.10;2.20;;;14.20;99.90;;;;;;5016059;28;20044;-82
2022/11/02 13:23:32;;;;;;;14.00;2.10;;;14.30;99.90;;;;;;5015690;28;20084;-83
2022/11/02 13:26:02;;;;;;;14.07;2.03;;;14.20;99.90;;;;;;5033186;28;20115;-82
2022/11/02 13:28:39;;;;;;;16.42;2.60;;;14.20;99.90;;;;;;5047651;28;20049;-82
2022/11/02 13:31:35;;;;;;;10.23;1.73;;;13.90;99.90;;;;;;5042154;28;20998;-81